createdAt,value
2022-10-15T00:03:31.627Z,525.13208
2022-10-15T00:08:33.369Z,553.90099
2022-10-15T00:13:36.122Z,553.90099
2022-10-15T00:18:37.765Z,572.57143
2022-10-15T00:23:39.239Z,606.36559
2022-10-15T00:28:40.780Z,592.42105
2022-10-15T00:33:42.284Z,566.22222
2022-10-15T00:38:43.845Z,566.22222
2022-10-15T00:43:45.616Z,553.90099
2022-10-15T00:48:47.300Z,560
2022-10-15T00:53:48.752Z,509.13761
2022-10-15T00:58:50.567Z,530.66667
2022-10-15T01:03:52.194Z,479.65217
2022-10-15T01:08:53.880Z,498.95495
2022-10-15T01:13:56.000Z,457.33333
2022-10-15T01:18:57.747Z,421.51938
2022-10-15T01:23:59.392Z,377.80282
2022-10-15T01:29:01.227Z,349.26316
2022-10-15T01:34:03.088Z,326.6087
2022-10-15T01:39:04.916Z,326.6087
2022-10-15T01:44:06.784Z,298.02299
2022-10-15T01:49:08.449Z,269.92593
2022-10-15T01:54:10.109Z,292.0226
2022-10-15T01:59:11.900Z,276.97297
2022-10-15T02:04:13.531Z,264.83333
2022-10-15T02:09:15.358Z,259.89744
2022-10-15T02:14:17.358Z,237.33333
2022-10-15T02:19:19.224Z,214.17544
2022-10-15T02:24:21.056Z,200.66667
2022-10-15T02:29:22.812Z,193.39271
2022-10-15T02:34:24.546Z,198.54545
2022-10-15T02:39:26.309Z,192.3871
2022-10-15T02:44:28.358Z,211.82609
2022-10-15T02:49:30.193Z,205.01695
2022-10-15T02:54:31.924Z,209.51724
2022-10-15T02:59:33.720Z,205.01695
2022-10-15T03:04:35.470Z,198.54545
2022-10-15T03:09:37.246Z,183.68872
2022-10-15T03:14:39.168Z,187.47826
2022-10-15T03:19:40.939Z,185.56863
2022-10-15T03:24:42.492Z,183.68872
2022-10-15T03:29:44.092Z,178.22053
2022-10-15T03:34:45.535Z,182.75969
2022-10-15T03:39:47.048Z,182.75969
2022-10-15T03:44:48.918Z,159.38462
2022-10-15T03:49:50.357Z,147.30033
2022-10-15T03:54:51.852Z,156.41379
2022-10-15T03:59:53.429Z,176.45283
2022-10-15T04:04:54.979Z,160.90141
2022-10-15T04:09:56.491Z,156.41379
2022-10-15T04:14:58.154Z,160.90141
2022-10-15T04:19:59.580Z,157.88889
2022-10-15T04:25:01.134Z,177.33333
2022-10-15T04:30:02.535Z,170.47059
2022-10-15T04:35:04.166Z,160.90141
2022-10-15T04:40:05.635Z,176.45283
2022-10-15T04:45:07.341Z,168.81752
2022-10-15T04:50:08.892Z,177.33333
2022-10-15T04:55:10.362Z,181.83784
2022-10-15T05:00:12.057Z,171.30627
2022-10-15T05:05:13.652Z,184.625
2022-10-15T05:10:15.311Z,180.92308
2022-10-15T05:15:16.998Z,197.49794
2022-10-15T05:20:18.462Z,215.36564
2022-10-15T05:25:19.919Z,220.23318
2022-10-15T05:30:21.431Z,245.96078
2022-10-15T05:35:22.969Z,226.56881
2022-10-15T05:40:24.711Z,253.54774
2022-10-15T05:45:26.389Z,208.37768
2022-10-15T05:50:28.024Z,231.85047
2022-10-15T05:55:29.513Z,221.47748
2022-10-15T06:00:31.093Z,258.28571
2022-10-15T06:05:32.758Z,259.89744
2022-10-15T06:10:34.198Z,261.52577
2022-10-15T06:15:35.816Z,226.56881
2022-10-15T06:20:37.290Z,230.51163
2022-10-15T06:25:38.740Z,231.85047
2022-10-15T06:30:40.236Z,219
2022-10-15T06:35:41.686Z,240.15385
2022-10-15T06:40:43.200Z,258.28571
2022-10-15T06:45:44.859Z,269.92593
2022-10-15T06:50:46.592Z,250.46766
2022-10-15T06:55:48.089Z,271.65957
2022-10-15T07:00:50.058Z,235.94313
2022-10-15T07:05:51.514Z,250.46766
2022-10-15T07:10:53.319Z,294
2022-10-15T07:15:55.003Z,276.97297
2022-10-15T07:20:56.498Z,276.97297
2022-10-15T07:25:58.169Z,275.1828
2022-10-15T07:30:59.835Z,306.35294
2022-10-15T07:36:01.262Z,338.87179
2022-10-15T07:41:02.756Z,304.23392
2022-10-15T07:46:04.540Z,333.87342
2022-10-15T07:51:06.146Z,341.41935
2022-10-15T07:56:07.755Z,403.70149
2022-10-15T08:01:09.211Z,387.16547
2022-10-15T08:06:10.933Z,417.84615
2022-10-15T08:11:12.399Z,553.90099
2022-10-15T08:16:14.132Z,628.44444
2022-10-15T08:21:15.880Z,686.16867
2022-10-15T08:26:17.632Z,425.25
2022-10-15T08:31:19.393Z,686.16867
2022-10-15T08:36:21.025Z,754.52632
2022-10-15T08:41:22.544Z,695.21951
2022-10-15T08:46:24.611Z,714
2022-10-15T08:51:26.422Z,677.33333
2022-10-15T08:56:28.071Z,754.52632
2022-10-15T09:01:29.820Z,891.69231
2022-10-15T09:06:31.567Z,1024.70175
2022-10-15T09:11:33.346Z,863.40299
2022-10-15T09:16:35.298Z,1201.14286
2022-10-15T09:21:37.080Z,1176
2022-10-15T09:26:38.888Z,1128.61538
2022-10-15T09:31:40.729Z,1128.61538
2022-10-15T09:36:42.211Z,1565.05263
2022-10-15T09:41:43.690Z,1376.55814
2022-10-15T09:46:45.483Z,1931.09677
2022-10-15T09:51:46.975Z,1755.76471
2022-10-15T09:56:48.424Z,1997.33333
2022-10-15T10:01:50.312Z,1484
2022-10-15T10:06:52.049Z,2510.66667
2022-10-15T10:11:53.784Z,1704
2022-10-15T10:16:55.716Z,1254.6383
2022-10-15T10:21:57.425Z,2225.48148
2022-10-15T10:26:59.250Z,1755.76471
2022-10-15T10:32:01.070Z,2313.23077
2022-10-15T10:37:02.696Z,1755.76471
2022-10-15T10:42:04.443Z,1810.66667
2022-10-15T10:47:06.444Z,2744
2022-10-15T10:52:08.201Z,3186.10526
2022-10-15T10:57:09.950Z,2622.26087
2022-10-15T11:02:11.696Z,2313.23077
2022-10-15T11:07:13.398Z,2744
2022-10-15T11:12:15.122Z,3366.22222
2022-10-15T11:17:17.083Z,3024
2022-10-15T11:27:21.572Z,3794
2022-10-15T11:32:25.745Z,3567.52941
2022-10-15T11:37:27.938Z,4682.46154
2022-10-15T11:42:29.446Z,3567.52941
2022-10-15T11:47:31.446Z,3567.52941
2022-10-15T11:52:33.152Z,4682.46154
2022-10-15T11:57:34.891Z,4344
2022-10-15T12:02:36.655Z,4344
2022-10-15T12:07:38.428Z,3794
2022-10-15T12:12:40.144Z,3794
2022-10-15T12:17:41.958Z,3024
2022-10-15T12:22:43.389Z,5077.33333
2022-10-15T12:27:44.896Z,6104
2022-10-15T12:32:46.369Z,3567.52941
2022-10-15T12:37:47.852Z,7644
2022-10-15T12:42:49.268Z,2744
2022-10-15T12:47:50.959Z,4344
2022-10-15T12:52:52.413Z,4682.46154
2022-10-15T12:57:53.840Z,3794
2022-10-15T13:02:55.279Z,4344
2022-10-15T13:07:56.753Z,3186.10526
2022-10-15T13:12:58.513Z,5544
2022-10-15T13:18:00.422Z,5544
2022-10-15T13:23:07.033Z,4682.46154
2022-10-15T13:28:20.160Z,5544
2022-10-15T13:33:21.828Z,5544
2022-10-15T13:38:23.444Z,4050.66667
2022-10-15T13:43:25.402Z,3366.22222
2022-10-15T13:48:27.300Z,377.80282
2022-10-15T13:53:28.943Z,553.90099
2022-10-15T13:58:30.600Z,145.96721
2022-10-15T14:03:32.417Z,811.60563
2022-10-15T14:08:34.168Z,1810.66667
2022-10-15T14:13:35.711Z,2622.26087
2022-10-15T14:18:37.877Z,2510.66667
2022-10-15T14:23:39.619Z,1810.66667
2022-10-15T14:28:41.455Z,1655.11111
2022-10-15T14:33:43.028Z,1810.66667
2022-10-15T14:38:44.567Z,1565.05263
2022-10-15T14:43:46.046Z,1755.76471
2022-10-15T14:48:47.993Z,1608.86486
2022-10-15T14:53:49.530Z,1523.48718
2022-10-15T14:58:50.941Z,1523.48718
2022-10-15T15:03:52.475Z,1655.11111
2022-10-15T15:08:53.900Z,1344
2022-10-15T15:13:55.591Z,1523.48718
2022-10-15T15:18:57.635Z,1608.86486
2022-10-15T15:23:59.120Z,1565.05263
2022-10-15T15:29:00.770Z,1254.6383
2022-10-15T15:34:02.433Z,1312.88889
2022-10-15T15:39:03.989Z,1344
2022-10-15T15:44:05.476Z,1283.13043
2022-10-15T15:49:07.422Z,1312.88889
2022-10-15T15:54:08.887Z,1128.61538
2022-10-15T15:59:10.374Z,1254.6383
2022-10-15T16:04:11.865Z,1064
2022-10-15T16:09:13.338Z,1254.6383
2022-10-15T16:14:14.805Z,1176
2022-10-15T16:19:16.531Z,1312.88889
2022-10-15T16:24:18.205Z,1283.13043
2022-10-15T16:29:19.825Z,1254.6383
2022-10-15T16:34:21.673Z,1376.55814
2022-10-15T16:39:23.131Z,1446.43902
2022-10-15T16:44:24.622Z,1376.55814
2022-10-15T16:49:26.337Z,1227.33333
2022-10-15T16:54:27.859Z,448.91803
2022-10-15T16:59:29.334Z,351.94702
2022-10-15T17:04:31.050Z,310.66667
2022-10-15T17:09:32.608Z,317.33333
2022-10-15T17:14:34.235Z,475.03448
2022-10-15T17:19:36.239Z,461.64706
2022-10-15T17:24:37.701Z,536.30769
2022-10-15T17:29:39.721Z,470.49573
2022-10-15T17:34:41.202Z,387.16547
2022-10-15T17:39:42.949Z,484.35088
2022-10-15T17:44:44.438Z,906.5
2022-10-15T17:49:46.166Z,799.55556
2022-10-15T17:54:47.902Z,849.88235
2022-10-15T17:59:51.217Z,937.54839
2022-10-15T18:04:52.937Z,453.09091
2022-10-15T18:09:54.724Z,660.27907
2022-10-15T18:14:56.193Z,733.74359
2022-10-15T18:19:58.180Z,811.60563
2022-10-15T18:24:59.890Z,765.33333
2022-10-15T18:30:01.642Z,970.66667
2022-10-15T18:35:03.387Z,1376.55814
2022-10-15T18:40:05.132Z,1810.66667
2022-10-15T18:45:06.872Z,1655.11111
2022-10-15T18:50:08.887Z,1704
2022-10-15T18:55:10.909Z,1312.88889
2022-10-15T19:00:12.816Z,1151.84314
2022-10-15T19:05:14.678Z,1064
2022-10-15T19:10:19.134Z,849.88235
2022-10-15T19:15:21.910Z,744
2022-10-15T19:20:23.681Z,553.90099
2022-10-15T19:25:25.459Z,387.16547
2022-10-15T19:30:27.306Z,470.49573
2022-10-15T19:35:28.939Z,644
2022-10-15T19:40:30.614Z,644
2022-10-15T19:45:32.254Z,686.16867
2022-10-15T19:50:33.958Z,714
2022-10-15T19:55:35.689Z,744
2022-10-15T20:00:37.467Z,787.83562
2022-10-15T20:05:39.250Z,754.52632
2022-10-15T20:10:40.902Z,744
2022-10-15T20:15:42.575Z,733.74359
2022-10-15T20:20:44.484Z,776.43243
2022-10-15T20:25:45.948Z,765.33333
2022-10-15T20:30:47.580Z,787.83562
2022-10-15T20:35:49.049Z,677.33333
2022-10-15T20:40:50.634Z,787.83562
2022-10-15T20:45:52.054Z,754.52632
2022-10-15T20:50:53.723Z,714
2022-10-15T20:55:55.222Z,714
2022-10-15T21:00:56.797Z,776.43243
2022-10-15T21:05:58.487Z,723.74684
2022-10-15T21:10:59.982Z,765.33333
2022-10-15T21:16:01.445Z,787.83562
2022-10-15T21:21:03.278Z,776.43243
2022-10-15T21:26:04.984Z,668.70588
2022-10-15T21:31:06.729Z,660.27907
2022-10-15T21:36:08.511Z,695.21951
2022-10-15T21:41:10.259Z,599.31915
2022-10-15T21:46:11.996Z,636.13483
2022-10-15T21:51:14.034Z,628.44444
2022-10-15T21:56:15.771Z,530.66667
2022-10-15T22:01:19.335Z,461.64706
2022-10-15T22:06:21.538Z,432.88889
2022-10-15T22:11:23.374Z,444.81301
2022-10-15T22:16:25.161Z,484.35088
2022-10-15T22:21:27.135Z,553.90099
2022-10-15T22:26:28.880Z,560
2022-10-15T22:31:30.654Z,530.66667
2022-10-15T22:36:32.292Z,504
2022-10-15T22:41:34.047Z,475.03448
2022-10-15T22:46:35.794Z,470.49573
2022-10-15T22:51:37.844Z,436.8
2022-10-15T22:56:39.591Z,403.70149
2022-10-15T23:01:41.410Z,393.63504
2022-10-15T23:06:43.233Z,414.22901
2022-10-15T23:11:44.984Z,400.2963
2022-10-15T23:16:46.494Z,466.0339
2022-10-15T23:21:48.696Z,525.13208
2022-10-15T23:26:50.213Z,606.36559
2022-10-15T23:31:51.667Z,660.27907
2022-10-15T23:36:53.153Z,636.13483
2022-10-15T23:41:54.654Z,733.74359
2022-10-15T23:46:56.107Z,714
2022-10-15T23:51:57.799Z,592.42105
2022-10-15T23:56:59.550Z,470.49573
